KMSO/MSO METAR and TAF weather

Enter ICAO airport designator
Station Type Date Time Source
KMSO METAR 2019/10/23 19:53 UTC NOAA

KMSO 231953Z 01008KT 10SM SCT055 BKN070 OVC090 09/M04 A3035 RMK AO2 WSHFT 1935 SLP292 T00891044


Station Type Date Time Source
KMSO Decoded METAR 2019/10/23 19:53 UTC NOAA

MISSOULA INTERNATIONAL AIRPORT , MT, United States (KMSO) 46-55N 114-06W 975M
Oct 23, 2019 - 03:53 PM EDT / 2019.10.23 1953 UTC
Wind: from the N (010 degrees) at 9 MPH (8 KT):0
Visibility: 10 mile(s):0
Sky conditions: overcast
Temperature: 48.0 F (8.9 C)
Dew Point: 24.1 F (-4.4 C)
Relative Humidity: 38%
Pressure (altimeter): 30.35 in. Hg (1027 hPa)
ob: KMSO 231953Z 01008KT 10SM SCT055 BKN070 OVC090 09/M04 A3035 RMK AO2 WSHFT 1935 SLP292 T00891044
cycle: 20

Station Type Date Time Source
KMSO TAF 2019/10/23 18:22 UTC NOAA

TAF KMSO 231720Z 2318/2418 VRB03KT P6SM SCT080

Example: see airport list